Time;durP1;ratioP1;P1;durP2;ratioP2;P2;SDS_P1;SDS_P2;PMS_P1;PMS_P2;Temp;Humidity;BMP_temperature;BMP_pressure;BME280_temperature;BME280_humidity;BME280_pressure;Samples;Min_cycle;Max_cycle;Signal;HPM_P1;HPM_P2
2023/08/10 00:00:58;;;;;;;9.45;5.40;;;12.60;99.90;;;;;;5053553;28;20021;-70
2023/08/10 00:03:24;;;;;;;7.03;4.93;;;12.60;99.90;;;;;;5053857;28;20033;-70
2023/08/10 00:05:50;;;;;;;7.45;5.30;;;12.70;99.90;;;;;;5053472;28;20378;-70
2023/08/10 00:08:15;;;;;;;8.23;4.97;;;12.80;99.90;;;;;;5053765;28;20506;-70
2023/08/10 00:10:41;;;;;;;11.13;5.38;;;12.70;99.90;;;;;;5053746;28;20036;-70
2023/08/10 00:13:08;;;;;;;6.45;4.85;;;13.00;99.90;;;;;;5053721;28;20087;-70
2023/08/10 00:15:34;;;;;;;10.02;6.05;;;12.90;99.90;;;;;;5053344;28;20025;-70
2023/08/10 00:17:59;;;;;;;11.48;5.95;;;12.90;99.90;;;;;;5053896;28;20033;-70
2023/08/10 00:20:25;;;;;;;9.88;5.50;;;13.10;99.90;;;;;;5053148;28;20158;-70
2023/08/10 00:22:52;;;;;;;9.32;5.10;;;13.10;99.90;;;;;;5053769;28;20437;-70
2023/08/10 00:25:17;;;;;;;8.40;6.03;;;13.00;99.90;;;;;;5053120;28;20028;-70
2023/08/10 00:27:43;;;;;;;7.28;5.63;;;13.00;99.90;;;;;;5052971;28;20033;-70
2023/08/10 00:30:09;;;;;;;7.72;5.50;;;13.00;99.90;;;;;;5052859;28;20025;-70
2023/08/10 00:32:35;;;;;;;9.70;5.22;;;13.10;99.90;;;;;;5053336;28;20025;-70
2023/08/10 00:35:02;;;;;;;6.70;4.80;;;13.00;99.90;;;;;;5053183;28;20025;-70
2023/08/10 00:37:28;;;;;;;12.95;5.43;;;12.80;99.90;;;;;;5053124;28;20513;-70
2023/08/10 00:39:53;;;;;;;10.55;6.00;;;13.00;99.90;;;;;;5053479;28;20052;-70
2023/08/10 00:42:19;;;;;;;8.77;5.40;;;13.50;99.90;;;;;;5052130;28;20028;-70
2023/08/10 00:44:44;;;;;;;8.90;5.45;;;13.10;99.90;;;;;;5053243;28;20036;-70
2023/08/10 00:47:10;;;;;;;7.30;5.10;;;13.10;99.90;;;;;;5053611;28;20048;-70
2023/08/10 00:49:36;;;;;;;11.80;5.80;;;13.20;99.90;;;;;;5053054;28;20060;-70
2023/08/10 00:52:03;;;;;;;10.13;5.38;;;13.10;99.90;;;;;;5056476;28;20029;-70
2023/08/10 00:54:28;;;;;;;10.30;5.43;;;13.20;99.90;;;;;;5056480;28;20029;-70
2023/08/10 00:56:54;;;;;;;11.23;5.90;;;13.20;99.90;;;;;;5056883;28;20029;-70
2023/08/10 00:59:20;;;;;;;8.70;6.00;;;13.20;99.90;;;;;;5056681;28;20112;-70
2023/08/10 01:01:46;;;;;;;11.95;6.97;;;13.20;99.90;;;;;;5056954;28;20178;-70
2023/08/10 01:04:11;;;;;;;12.50;7.15;;;13.30;99.90;;;;;;5056715;28;20033;-70
2023/08/10 01:06:48;;;;;;;9.73;5.55;;;13.20;99.90;;;;;;5056520;28;20028;-70
2023/08/10 01:09:27;;;;;;;11.73;4.97;;;13.20;99.90;;;;;;5056335;28;20025;-70
2023/08/10 01:12:32;;;;;;;9.02;6.45;;;13.20;99.90;;;;;;5056845;28;20107;-70
2023/08/10 01:15:07;;;;;;;9.77;6.38;;;13.20;99.90;;;;;;5056286;28;20478;-70
2023/08/10 01:17:40;;;;;;;9.45;6.15;;;13.30;99.90;;;;;;5056240;28;20470;-70
2023/08/10 01:20:08;;;;;;;10.18;5.63;;;13.30;99.90;;;;;;5056729;28;20020;-70
2023/08/10 01:22:51;;;;;;;10.43;6.22;;;13.20;99.90;;;;;;5056656;28;20033;-70
2023/08/10 01:25:19;;;;;;;9.93;6.65;;;13.20;99.90;;;;;;5055938;28;20052;-70
2023/08/10 01:27:45;;;;;;;13.25;6.15;;;13.20;99.90;;;;;;5056563;28;20033;-70
2023/08/10 01:30:12;;;;;;;10.30;7.00;;;13.20;99.90;;;;;;5055527;28;20489;-70
2023/08/10 01:32:38;;;;;;;11.27;7.03;;;13.20;99.90;;;;;;5056086;28;20033;-70
2023/08/10 01:35:05;;;;;;;16.65;5.78;;;13.20;99.90;;;;;;5055353;28;20041;-70
2023/08/10 01:37:33;;;;;;;11.93;6.15;;;13.20;99.90;;;;;;5056384;28;20340;-70
2023/08/10 01:39:59;;;;;;;12.98;6.18;;;13.20;99.90;;;;;;5056340;28;20446;-70
2023/08/10 01:42:25;;;;;;;8.35;5.82;;;13.30;99.90;;;;;;5055514;28;20112;-70
2023/08/10 01:44:51;;;;;;;11.07;5.28;;;13.20;99.90;;;;;;5055126;28;20107;-70
2023/08/10 01:47:27;;;;;;;10.35;5.88;;;13.10;99.90;;;;;;5056130;28;20029;-70
2023/08/10 01:49:56;;;;;;;11.40;6.30;;;13.10;99.90;;;;;;5055855;28;20021;-70
2023/08/10 01:52:28;;;;;;;11.57;5.93;;;13.20;99.90;;;;;;5055882;28;20025;-70
2023/08/10 01:54:54;;;;;;;10.27;6.35;;;13.20;99.90;;;;;;5056059;28;20040;-70
2023/08/10 01:57:20;;;;;;;9.55;6.50;;;13.20;99.90;;;;;;5055516;28;20041;-70
2023/08/10 01:59:45;;;;;;;9.30;6.40;;;13.20;99.90;;;;;;5055414;28;20037;-70
2023/08/10 02:02:11;;;;;;;10.18;6.72;;;13.20;99.90;;;;;;5055337;28;20039;-70
2023/08/10 02:04:37;;;;;;;12.52;6.35;;;13.30;99.90;;;;;;5054719;28;20029;-70
2023/08/10 02:07:03;;;;;;;12.32;5.85;;;13.20;99.90;;;;;;5055286;28;20029;-70
2023/08/10 02:09:29;;;;;;;11.05;6.35;;;13.20;99.90;;;;;;5055413;28;20021;-70
2023/08/10 02:11:54;;;;;;;12.07;5.75;;;13.20;99.90;;;;;;5055183;28;20378;-70
2023/08/10 02:14:20;;;;;;;10.75;5.75;;;13.20;99.90;;;;;;5055685;28;20087;-70
2023/08/10 02:16:46;;;;;;;8.05;4.93;;;13.20;99.90;;;;;;5055328;28;20382;-70
2023/08/10 02:19:11;;;;;;;10.48;5.57;;;13.20;99.90;;;;;;5055608;28;20117;-70
2023/08/10 02:21:37;;;;;;;10.75;6.18;;;13.20;99.90;;;;;;5055334;28;20360;-70
2023/08/10 02:24:04;;;;;;;11.98;5.60;;;13.30;99.90;;;;;;5055043;28;20050;-70
2023/08/10 02:26:30;;;;;;;10.80;5.68;;;13.30;99.90;;;;;;5054745;28;20017;-70
2023/08/10 02:28:55;;;;;;;12.65;5.68;;;13.30;99.90;;;;;;5055177;28;20366;-70
2023/08/10 02:31:23;;;;;;;11.52;5.70;;;13.30;99.90;;;;;;5055357;28;20017;-70
2023/08/10 02:33:49;;;;;;;11.85;5.57;;;13.30;99.90;;;;;;5054197;28;20036;-70
2023/08/10 02:36:14;;;;;;;15.45;5.90;;;13.30;99.90;;;;;;5054982;28;20033;-70
2023/08/10 02:38:40;;;;;;;12.75;6.28;;;13.30;99.90;;;;;;5055136;28;20021;-70
2023/08/10 02:41:05;;;;;;;13.45;6.18;;;13.30;99.90;;;;;;5054868;28;20043;-70
2023/08/10 02:43:31;;;;;;;8.82;6.00;;;13.40;99.90;;;;;;5053917;28;20443;-72
2023/08/10 02:45:57;;;;;;;11.77;5.47;;;13.40;99.90;;;;;;5054390;28;20078;-72
2023/08/10 02:48:22;;;;;;;12.77;5.40;;;13.40;99.90;;;;;;5054771;28;20402;-70
2023/08/10 02:50:48;;;;;;;9.23;4.95;;;13.30;99.90;;;;;;5054509;28;20021;-70
2023/08/10 02:53:14;;;;;;;9.35;5.45;;;13.40;99.90;;;;;;5054922;28;20032;-70
2023/08/10 02:55:39;;;;;;;13.30;5.07;;;13.30;99.90;;;;;;5054331;28;20132;-70
2023/08/10 02:58:05;;;;;;;11.27;4.90;;;13.40;99.90;;;;;;5054896;28;20037;-70
2023/08/10 03:00:31;;;;;;;9.50;4.50;;;13.30;99.90;;;;;;5054825;28;20482;-70
2023/08/10 03:02:56;;;;;;;11.75;5.43;;;13.30;99.90;;;;;;5054732;28;20127;-70
2023/08/10 03:05:22;;;;;;;12.40;6.03;;;13.20;99.90;;;;;;5054499;28;20059;-70
2023/08/10 03:07:48;;;;;;;13.05;5.40;;;13.20;99.90;;;;;;5054159;28;20028;-70
2023/08/10 03:10:14;;;;;;;13.60;5.18;;;13.30;99.90;;;;;;5054055;28;20032;-70
2023/08/10 03:12:39;;;;;;;13.75;5.32;;;13.30;99.90;;;;;;5054314;28;20025;-70
2023/08/10 03:15:09;;;;;;;8.40;4.53;;;13.30;99.90;;;;;;5053742;28;20025;-70
2023/08/10 03:17:35;;;;;;;15.20;5.40;;;13.20;99.90;;;;;;5053719;28;20029;-70
2023/08/10 03:20:00;;;;;;;12.57;5.00;;;13.20;99.90;;;;;;5054509;28;20024;-70
2023/08/10 03:22:27;;;;;;;12.27;5.25;;;13.20;99.90;;;;;;5053472;28;20032;-70
2023/08/10 03:24:53;;;;;;;9.98;5.25;;;13.10;99.90;;;;;;5053806;28;20028;-70
2023/08/10 03:27:19;;;;;;;10.90;5.30;;;13.20;99.90;;;;;;5053630;28;20021;-70
2023/08/10 03:29:45;;;;;;;11.15;5.10;;;13.20;99.90;;;;;;5053515;28;20029;-70
2023/08/10 03:32:10;;;;;;;8.25;4.82;;;13.20;99.90;;;;;;5054355;28;20130;-70
2023/08/10 03:34:36;;;;;;;11.95;5.22;;;13.10;99.90;;;;;;5053768;28;20463;-70
2023/08/10 03:37:02;;;;;;;10.95;5.28;;;13.10;99.90;;;;;;5053396;28;20040;-70
2023/08/10 03:39:28;;;;;;;10.15;4.57;;;13.20;99.90;;;;;;5054270;28;20056;-70
2023/08/10 03:41:53;;;;;;;7.78;4.75;;;13.10;99.90;;;;;;5054214;28;20075;-70
2023/08/10 03:44:19;;;;;;;10.10;5.00;;;13.20;99.90;;;;;;5052870;28;20402;-70
2023/08/10 03:46:45;;;;;;;14.15;5.68;;;13.20;99.90;;;;;;5053395;28;20029;-70
2023/08/10 03:49:10;;;;;;;10.93;5.80;;;13.20;99.90;;;;;;5053676;28;20083;-70
2023/08/10 03:51:36;;;;;;;10.85;4.82;;;13.20;99.90;;;;;;5053842;28;20021;-69
2023/08/10 03:54:02;;;;;;;8.82;4.53;;;13.20;99.90;;;;;;5053830;28;20410;-70
2023/08/10 03:56:27;;;;;;;12.35;4.93;;;13.10;99.90;;;;;;5053884;28;20108;-69
2023/08/10 03:58:53;;;;;;;14.48;5.72;;;13.10;99.90;;;;;;5054021;28;20044;-70
2023/08/10 04:01:19;;;;;;;8.75;4.60;;;13.10;99.90;;;;;;5053963;28;20029;-70
2023/08/10 04:03:44;;;;;;;15.82;5.95;;;13.10;99.90;;;;;;5053589;28;20116;-70
2023/08/10 04:06:10;;;;;;;14.40;5.45;;;13.10;99.90;;;;;;5053465;28;20103;-70
2023/08/10 04:08:36;;;;;;;10.70;5.72;;;13.10;99.90;;;;;;5053980;28;20078;-70
2023/08/10 04:11:01;;;;;;;13.48;5.38;;;13.10;99.90;;;;;;5053947;28;20133;-70
2023/08/10 04:13:27;;;;;;;15.90;5.93;;;13.10;99.90;;;;;;5053421;28;20417;-70
2023/08/10 04:15:53;;;;;;;13.63;6.15;;;13.10;99.90;;;;;;5053366;28;20069;-70
2023/08/10 04:18:18;;;;;;;10.68;5.30;;;13.10;99.90;;;;;;5053892;28;20025;-70
2023/08/10 04:20:44;;;;;;;11.15;5.80;;;13.10;99.90;;;;;;5052965;28;20115;-70
2023/08/10 04:23:10;;;;;;;12.07;6.20;;;13.20;99.90;;;;;;5053796;28;20032;-70
2023/08/10 04:25:36;;;;;;;16.48;6.63;;;13.20;99.90;;;;;;5054139;28;20070;-70
2023/08/10 04:28:02;;;;;;;14.88;6.03;;;13.30;99.90;;;;;;5057450;28;20033;-70
2023/08/10 04:30:29;;;;;;;9.07;5.53;;;13.30;99.90;;;;;;5056843;28;20443;-70
2023/08/10 04:32:56;;;;;;;15.65;5.60;;;13.30;99.90;;;;;;5057623;28;20025;-70
2023/08/10 04:35:22;;;;;;;14.02;5.47;;;13.40;99.90;;;;;;5057605;28;20031;-70
2023/08/10 04:37:48;;;;;;;11.57;6.07;;;13.50;99.90;;;;;;5057060;28;20029;-70
2023/08/10 04:40:14;;;;;;;15.15;5.57;;;13.50;99.90;;;;;;5056948;28;20021;-70
2023/08/10 04:42:40;;;;;;;12.27;5.78;;;13.60;99.90;;;;;;5057005;28;20052;-70
2023/08/10 04:45:09;;;;;;;9.88;5.10;;;13.70;99.90;;;;;;5057108;28;20033;-70
2023/08/10 04:47:35;;;;;;;13.43;5.55;;;13.80;99.90;;;;;;5056848;28;20059;-70
2023/08/10 04:50:02;;;;;;;10.68;5.20;;;13.90;99.90;;;;;;5056829;28;20143;-70
2023/08/10 04:52:27;;;;;;;10.48;5.65;;;13.90;99.90;;;;;;5057007;28;20059;-69
2023/08/10 04:54:54;;;;;;;11.27;5.10;;;13.90;99.90;;;;;;5056810;28;20056;-70
2023/08/10 04:57:19;;;;;;;11.60;5.50;;;13.90;99.90;;;;;;5057114;28;20048;-70
2023/08/10 04:59:45;;;;;;;12.48;5.45;;;14.00;99.90;;;;;;5056530;28;20079;-70
2023/08/10 05:02:10;;;;;;;13.63;5.85;;;14.00;99.90;;;;;;5056843;28;20038;-70
2023/08/10 05:04:36;;;;;;;11.60;5.45;;;14.10;99.90;;;;;;5056084;28;20029;-70
2023/08/10 05:07:01;;;;;;;8.10;5.03;;;14.20;99.90;;;;;;5056365;28;20386;-70
2023/08/10 05:09:27;;;;;;;12.55;4.90;;;14.20;99.90;;;;;;5056640;28;20029;-70
2023/08/10 05:11:53;;;;;;;15.73;5.10;;;14.20;99.90;;;;;;5056313;28;20040;-70
2023/08/10 05:14:18;;;;;;;11.32;5.75;;;14.20;99.90;;;;;;5056244;28;20422;-70
2023/08/10 05:16:45;;;;;;;12.63;5.28;;;14.20;99.90;;;;;;5055993;28;20462;-70
2023/08/10 05:19:10;;;;;;;14.98;5.40;;;14.30;99.90;;;;;;5056444;28;20120;-70
2023/08/10 05:21:36;;;;;;;11.90;5.25;;;14.40;99.90;;;;;;5056077;28;20052;-70
2023/08/10 05:24:02;;;;;;;9.48;5.10;;;14.50;99.90;;;;;;5055829;28;20112;-70
2023/08/10 05:26:27;;;;;;;9.98;5.97;;;14.70;99.90;;;;;;5056214;28;20086;-70
2023/08/10 05:28:53;;;;;;;13.43;6.20;;;14.90;99.90;;;;;;5056449;28;20028;-70
2023/08/10 05:31:18;;;;;;;10.80;5.55;;;15.10;99.90;;;;;;5056138;28;20138;-70
2023/08/10 05:33:44;;;;;;;13.95;5.53;;;15.20;99.90;;;;;;5056365;28;20413;-70
2023/08/10 05:36:10;;;;;;;9.93;4.88;;;15.40;99.90;;;;;;5055780;28;20039;-71
2023/08/10 05:38:38;;;;;;;12.15;5.35;;;15.70;99.90;;;;;;5056045;28;20382;-71
2023/08/10 05:41:04;;;;;;;10.75;4.70;;;16.00;99.90;;;;;;5055688;28;20561;-71
2023/08/10 05:43:29;;;;;;;15.50;5.72;;;16.20;99.90;;;;;;5055201;28;20119;-71
2023/08/10 05:45:55;;;;;;;10.38;4.55;;;16.10;78.60;;;;;;5055812;28;20152;-71
2023/08/10 05:48:21;;;;;;;11.63;4.68;;;16.30;95.70;;;;;;5055670;28;20490;-70
2023/08/10 05:50:46;;;;;;;10.77;4.38;;;16.50;54.10;;;;;;5055586;28;20028;-71
2023/08/10 05:53:12;;;;;;;10.85;4.60;;;16.70;45.40;;;;;;5056046;28;20131;-71
2023/08/10 05:55:38;;;;;;;17.08;5.07;;;16.90;39.90;;;;;;5055248;28;20391;-70
2023/08/10 05:58:04;;;;;;;12.57;4.43;;;16.70;33.00;;;;;;5055374;28;20036;-70
2023/08/10 06:00:29;;;;;;;9.45;5.13;;;16.70;63.90;;;;;;5055100;28;20025;-70
2023/08/10 06:02:55;;;;;;;12.15;5.53;;;16.30;62.60;;;;;;5055078;28;20040;-70
2023/08/10 06:05:21;;;;;;;12.20;4.57;;;16.20;84.30;;;;;;5055844;28;20513;-71
2023/08/10 06:07:47;;;;;;;11.85;4.88;;;16.70;71.40;;;;;;5055148;28;20099;-71
2023/08/10 06:10:16;;;;;;;12.07;4.57;;;17.00;25.60;;;;;;5055404;28;20021;-71
2023/08/10 06:12:42;;;;;;;11.88;4.95;;;17.70;1.00;;;;;;5055686;28;20018;-71
2023/08/10 06:15:09;;;;;;;16.00;4.45;;;18.20;1.00;;;;;;5055105;28;20036;-70
2023/08/10 06:17:36;;;;;;;8.93;4.03;;;18.40;1.00;;;;;;5055561;28;20474;-71
2023/08/10 06:20:09;;;;;;;7.45;4.55;;;18.40;1.00;;;;;;5054979;28;20040;-71
2023/08/10 06:22:36;;;;;;;13.48;3.92;;;19.40;1.00;;;;;;5054918;28;20052;-71
2023/08/10 06:25:02;;;;;;;11.30;4.47;;;19.70;99.90;;;;;;5054123;28;20032;-71
2023/08/10 06:27:27;;;;;;;6.57;3.60;;;19.00;1.00;;;;;;5054851;28;20105;-71
2023/08/10 06:29:53;;;;;;;12.02;4.53;;;18.70;1.00;;;;;;5054991;28;20095;-71
2023/08/10 06:32:18;;;;;;;9.32;4.03;;;18.50;1.00;;;;;;5055025;28;20485;-71
2023/08/10 06:34:44;;;;;;;9.85;4.28;;;17.90;1.00;;;;;;5054698;28;20029;-70
2023/08/10 06:37:10;;;;;;;11.43;4.20;;;17.60;1.00;;;;;;5054580;28;20104;-70
2023/08/10 06:39:36;;;;;;;12.52;4.65;;;17.50;1.00;;;;;;5055135;28;20474;-70
2023/08/10 06:42:02;;;;;;;13.10;3.60;;;17.40;1.00;;;;;;5055105;28;20071;-70
2023/08/10 06:44:29;;;;;;;11.00;3.83;;;17.80;1.00;;;;;;5053779;28;20132;-71
2023/08/10 06:46:54;;;;;;;10.75;4.22;;;17.90;1.00;;;;;;5054485;28;20032;-71
2023/08/10 06:49:21;;;;;;;10.27;3.75;;;17.60;1.00;;;;;;5054205;28;20029;-70
2023/08/10 06:51:49;;;;;;;9.77;4.30;;;17.50;1.00;;;;;;5054919;28;20421;-70
2023/08/10 06:54:14;;;;;;;9.75;3.83;;;17.30;1.00;;;;;;5054898;28;20083;-70
2023/08/10 06:56:40;;;;;;;9.43;3.47;;;17.90;1.00;;;;;;5054507;28;20029;-71
2023/08/10 06:59:07;;;;;;;10.55;3.45;;;19.40;1.00;;;;;;5053807;28;20033;-71
2023/08/10 07:01:33;;;;;;;5.95;3.20;;;21.30;1.00;;;;;;5054125;28;20124;-71
2023/08/10 07:03:59;;;;;;;9.35;3.00;;;22.50;99.90;;;;;;5054425;28;20123;-71
2023/08/10 07:06:26;;;;;;;7.22;2.70;;;21.80;53.20;;;;;;5054504;28;20024;-71
2023/08/10 07:08:52;;;;;;;9.70;2.45;;;21.30;20.80;;;;;;5054606;28;20103;-72
2023/08/10 07:11:20;;;;;;;10.07;2.35;;;21.30;99.90;;;;;;5054086;28;20028;-70
2023/08/10 07:13:47;;;;;;;9.10;2.33;;;21.70;99.90;;;;;;5053878;28;20378;-71
2023/08/10 07:16:12;;;;;;;5.93;2.58;;;22.00;99.90;;;;;;5053929;28;20478;-70
2023/08/10 07:18:38;;;;;;;15.52;2.90;;;22.70;99.90;;;;;;5054245;28;20111;-71
2023/08/10 07:21:04;;;;;;;7.80;2.90;;;23.40;22.90;;;;;;5053989;28;20032;-70
2023/08/10 07:23:30;;;;;;;7.20;2.58;;;23.60;99.90;;;;;;5053802;28;20032;-71
2023/08/10 07:25:56;;;;;;;8.25;2.30;;;23.80;9.10;;;;;;5053854;28;20390;-70
2023/08/10 07:28:23;;;;;;;5.72;2.53;;;23.70;99.90;;;;;;5053569;28;20025;-70
2023/08/10 07:30:50;;;;;;;10.70;3.20;;;22.90;1.00;;;;;;5053838;28;20411;-70
2023/08/10 07:33:16;;;;;;;4.28;2.30;;;22.70;99.90;;;;;;5054007;28;20029;-71
2023/08/10 07:35:43;;;;;;;7.25;2.20;;;22.40;99.90;;;;;;5054025;28;20032;-70
2023/08/10 07:38:09;;;;;;;9.18;2.50;;;21.20;99.90;;;;;;5054046;28;20120;-70
2023/08/10 07:40:34;;;;;;;9.00;2.60;;;21.80;99.90;;;;;;5053518;28;20057;-71
2023/08/10 07:43:00;;;;;;;10.18;2.30;;;22.10;42.30;;;;;;5053231;28;20052;-70
2023/08/10 07:45:25;;;;;;;10.63;2.65;;;22.10;1.00;;;;;;5053617;28;20490;-70
2023/08/10 07:47:51;;;;;;;7.03;2.53;;;22.80;99.90;;;;;;5053665;28;20025;-70
2023/08/10 07:50:17;;;;;;;8.45;2.10;;;22.00;99.90;;;;;;5053321;28;20025;-70
2023/08/10 07:52:43;;;;;;;5.35;1.90;;;22.40;1.00;;;;;;5053701;28;20024;-70
2023/08/10 07:55:10;;;;;;;7.40;2.03;;;23.20;99.90;;;;;;5054000;28;20060;-71
2023/08/10 07:57:35;;;;;;;7.32;2.08;;;23.10;99.90;;;;;;5053169;28;20087;-72
2023/08/10 08:00:05;;;;;;;8.73;2.35;;;23.90;1.00;;;;;;5055201;28;20471;-70
2023/08/10 08:02:31;;;;;;;7.75;2.00;;;23.60;1.00;;;;;;5057630;28;20027;-70
2023/08/10 08:04:57;;;;;;;7.00;2.03;;;22.90;99.60;;;;;;5057716;28;20029;-70
2023/08/10 08:07:25;;;;;;;5.47;2.67;;;22.10;99.90;;;;;;5057642;28;20021;-70
2023/08/10 08:09:51;;;;;;;7.35;2.35;;;22.20;99.90;;;;;;5058028;28;20025;-70
2023/08/10 08:12:17;;;;;;;8.55;2.20;;;21.10;1.00;;;;;;5057688;28;20025;-70
2023/08/10 08:14:43;;;;;;;3.78;2.08;;;20.80;1.00;;;;;;5057325;28;20500;-70
2023/08/10 08:17:09;;;;;;;8.63;2.63;;;19.90;1.00;;;;;;5057396;28;20032;-70
2023/08/10 08:19:36;;;;;;;9.70;2.45;;;19.90;1.00;;;;;;5057538;28;20051;-70
2023/08/10 08:22:02;;;;;;;6.90;2.38;;;20.80;99.90;;;;;;5057833;28;20029;-70
2023/08/10 08:24:28;;;;;;;9.20;1.92;;;21.60;99.90;;;;;;5057317;28;20081;-70
2023/08/10 08:26:54;;;;;;;10.77;2.55;;;22.10;1.00;;;;;;5056948;28;20108;-70
2023/08/10 08:29:20;;;;;;;7.13;2.28;;;22.70;1.00;;;;;;5057641;28;20459;-70
2023/08/10 08:31:45;;;;;;;9.65;2.35;;;22.80;57.00;;;;;;5056883;28;20025;-70
2023/08/10 08:34:11;;;;;;;10.45;2.20;;;22.90;99.90;;;;;;5057606;28;20370;-70
2023/08/10 08:36:37;;;;;;;8.40;2.25;;;23.70;1.00;;;;;;5057220;28;20470;-70
2023/08/10 08:39:02;;;;;;;3.13;1.73;;;24.30;1.00;;;;;;5056813;28;20091;-70
2023/08/10 08:41:35;;;;;;;6.60;1.80;;;25.70;99.90;;;;;;5056966;28;20024;-70
2023/08/10 08:44:01;;;;;;;4.87;1.70;;;25.30;99.90;;;;;;5056451;28;20041;-70
2023/08/10 08:46:30;;;;;;;4.72;1.60;;;24.40;99.90;;;;;;5056778;28;20078;-70
2023/08/10 08:48:56;;;;;;;6.28;1.75;;;24.60;92.70;;;;;;5057248;28;20029;-70
2023/08/10 08:51:23;;;;;;;4.88;1.52;;;24.20;1.00;;;;;;5057062;28;20032;-70
2023/08/10 08:53:50;;;;;;;4.50;1.90;;;24.90;1.00;;;;;;5057257;28;20031;-70
2023/08/10 08:56:16;;;;;;;5.53;1.98;;;25.50;1.00;;;;;;5057118;28;20024;-70
2023/08/10 08:58:41;;;;;;;5.65;1.90;;;25.40;1.00;;;;;;5057059;28;20061;-70
2023/08/10 09:01:08;;;;;;;8.38;2.10;;;25.10;1.00;;;;;;5056673;28;20025;-70
2023/08/10 09:03:34;;;;;;;4.63;1.35;;;24.30;1.00;;;;;;5056900;28;20099;-70
2023/08/10 09:06:00;;;;;;;4.88;1.77;;;24.70;1.00;;;;;;5056441;28;20462;-70
2023/08/10 09:08:26;;;;;;;4.18;1.83;;;24.00;1.00;;;;;;5056374;28;20029;-70
2023/08/10 09:10:53;;;;;;;6.47;1.60;;;23.60;99.90;;;;;;5055751;28;20115;-70
2023/08/10 09:13:21;;;;;;;8.15;2.08;;;24.20;99.90;;;;;;5056187;28;20450;-69
2023/08/10 09:18:43;;;;;;;6.40;2.08;;;25.10;1.00;;;;;;5071348;28;20714;-69
2023/08/10 09:21:13;;;;;;;8.43;2.10;;;25.80;99.90;;;;;;5071585;28;20423;-69
2023/08/10 09:23:41;;;;;;;3.90;2.30;;;26.10;1.00;;;;;;5071448;28;20017;-69
2023/08/10 09:26:09;;;;;;;6.03;2.70;;;25.50;1.00;;;;;;5070405;28;20020;-70
2023/08/10 09:28:37;;;;;;;7.32;2.63;;;24.80;99.90;;;;;;5071262;28;20036;-70
2023/08/10 09:31:04;;;;;;;5.82;2.70;;;25.10;36.20;;;;;;5071250;28;20043;-69
2023/08/10 09:33:32;;;;;;;5.22;2.28;;;26.60;1.00;;;;;;5070860;28;20024;-69
2023/08/10 09:35:59;;;;;;;4.15;1.65;;;27.20;1.00;;;;;;5070572;28;20024;-70
2023/08/10 09:38:25;;;;;;;4.90;1.80;;;25.20;1.00;;;;;;5070570;28;20351;-76
2023/08/10 09:41:07;;;;;;;6.30;2.55;;;24.30;1.00;;;;;;5071198;28;20078;-69
2023/08/10 09:43:32;;;;;;;4.70;1.63;;;24.10;99.90;;;;;;5070622;28;20111;-69
2023/08/10 09:46:06;;;;;;;3.10;1.27;;;24.60;99.90;;;;;;5070558;28;20076;-69
2023/08/10 09:48:36;;;;;;;4.72;1.65;;;25.30;1.00;;;;;;5070846;28;20025;-69
2023/08/10 09:51:04;;;;;;;5.97;1.77;;;26.20;1.00;;;;;;5070177;28;20036;-77
2023/08/10 09:53:31;;;;;;;5.70;1.90;;;26.60;1.00;;;;;;5070345;28;20032;-69
2023/08/10 09:55:57;;;;;;;3.55;1.55;;;25.80;99.90;;;;;;5069831;28;20031;-69
2023/08/10 09:58:24;;;;;;;8.13;1.63;;;26.30;1.00;;;;;;5069382;28;20040;-69
2023/08/10 10:00:50;;;;;;;4.93;1.33;;;25.60;1.00;;;;;;5070640;28;20033;-69
2023/08/10 10:03:17;;;;;;;3.05;1.17;;;26.60;1.00;;;;;;5070607;28;20107;-69
2023/08/10 10:05:43;;;;;;;5.38;1.30;;;27.20;1.00;;;;;;5069865;28;20063;-69
2023/08/10 10:08:11;;;;;;;5.95;1.80;;;27.00;1.00;;;;;;5070401;28;20459;-70
2023/08/10 10:10:38;;;;;;;2.53;1.15;;;25.70;1.00;;;;;;5070380;28;20028;-69
2023/08/10 10:13:08;;;;;;;3.90;1.42;;;25.20;1.00;;;;;;5070034;28;20032;-69
2023/08/10 10:15:36;;;;;;;2.33;1.10;;;26.00;1.00;;;;;;5069469;28;20036;-69
2023/08/10 10:18:03;;;;;;;3.63;1.50;;;26.30;1.00;;;;;;5068977;28;20045;-69
2023/08/10 10:20:29;;;;;;;2.88;1.00;;;26.10;1.00;;;;;;5069566;28;20036;-70
2023/08/10 10:22:55;;;;;;;4.63;1.45;;;27.30;1.00;;;;;;5070220;28;20025;-69
2023/08/10 10:25:20;;;;;;;3.38;1.40;;;27.20;1.00;;;;;;5069341;28;20055;-69
2023/08/10 10:27:49;;;;;;;5.28;1.35;;;27.10;1.00;;;;;;5069625;28;20028;-69
2023/08/10 10:30:17;;;;;;;6.25;1.60;;;26.70;1.00;;;;;;5056101;28;20110;-69
2023/08/10 10:32:45;;;;;;;4.82;1.27;;;27.30;1.00;;;;;;5055904;28;20120;-69
2023/08/10 10:35:14;;;;;;;4.35;1.45;;;27.70;1.00;;;;;;5056391;28;20356;-70
2023/08/10 10:37:40;;;;;;;4.82;1.88;;;27.90;1.00;;;;;;5055805;28;20029;-69
2023/08/10 10:40:15;;;;;;;4.28;1.55;;;27.00;1.00;;;;;;5056472;28;20052;-70
2023/08/10 10:45:42;;;;;;;5.40;1.42;;;26.90;1.00;;;;;;5111292;27;20284;-69
2023/08/10 10:48:12;;;;;;;3.33;1.42;;;27.00;1.00;;;;;;5111773;28;20474;-70
2023/08/10 10:50:38;;;;;;;4.35;1.55;;;27.70;99.90;;;;;;5111714;28;20385;-70
2023/08/10 10:53:09;;;;;;;4.25;1.50;;;27.30;99.90;;;;;;5111854;28;20020;-69
2023/08/10 10:58:14;;;;;;;4.85;1.80;;;26.60;99.90;;;;;;5111911;27;20384;-70
2023/08/10 11:00:42;;;;;;;4.45;1.40;;;25.10;99.90;;;;;;5111764;28;20511;-70
2023/08/10 11:03:11;;;;;;;2.45;1.25;;;25.10;1.00;;;;;;5112037;28;20024;-71
2023/08/10 11:05:37;;;;;;;5.93;1.70;;;25.00;1.00;;;;;;5111495;28;20413;-70
2023/08/10 11:08:03;;;;;;;6.55;1.63;;;24.70;99.90;;;;;;5111577;28;20496;-70
2023/08/10 11:10:32;;;;;;;3.28;1.27;;;24.50;1.00;;;;;;5111558;28;20043;-70
2023/08/10 11:12:58;;;;;;;4.72;1.90;;;24.80;99.90;;;;;;5111701;28;20059;-70
2023/08/10 11:15:23;;;;;;;4.95;1.60;;;25.20;99.90;;;;;;5110851;28;20032;-70
2023/08/10 11:17:53;;;;;;;4.10;1.63;;;25.00;99.90;;;;;;5110841;28;20040;-70
2023/08/10 11:20:20;;;;;;;3.50;1.50;;;24.90;99.90;;;;;;5111707;28;20026;-70
2023/08/10 11:22:48;;;;;;;3.95;1.60;;;24.90;99.90;;;;;;5111362;28;20030;-70
2023/08/10 11:25:18;;;;;;;5.53;1.65;;;24.90;99.90;;;;;;5111119;28;20035;-71
2023/08/10 11:27:46;;;;;;;6.57;1.63;;;24.70;90.30;;;;;;5111070;28;20051;-70
2023/08/10 11:30:16;;;;;;;5.07;1.48;;;24.00;99.90;;;;;;5111516;28;20499;-70
2023/08/10 11:32:44;;;;;;;4.25;1.65;;;24.50;99.90;;;;;;5111388;28;20465;-70
2023/08/10 11:35:11;;;;;;;5.93;1.60;;;24.40;1.00;;;;;;5110991;28;20024;-70
2023/08/10 11:37:38;;;;;;;5.90;2.05;;;24.70;99.90;;;;;;5110712;28;20024;-70
2023/08/10 11:40:15;;;;;;;2.97;1.80;;;24.60;99.90;;;;;;5110903;28;20455;-70
2023/08/10 11:42:43;;;;;;;5.38;1.58;;;24.60;99.90;;;;;;5110455;28;20028;-70
2023/08/10 11:45:11;;;;;;;7.43;1.90;;;25.10;99.90;;;;;;5110873;27;20032;-70
2023/08/10 11:47:40;;;;;;;5.15;1.70;;;25.30;99.90;;;;;;5110644;28;20457;-70
2023/08/10 11:50:09;;;;;;;8.95;1.98;;;25.00;92.50;;;;;;5110673;28;20024;-70
2023/08/10 11:52:35;;;;;;;6.13;2.20;;;24.70;99.90;;;;;;5110195;28;20079;-70
2023/08/10 11:55:10;;;;;;;4.78;2.13;;;24.80;99.90;;;;;;5110983;28;20031;-70
2023/08/10 11:57:37;;;;;;;2.78;1.60;;;24.60;99.90;;;;;;5109653;28;20052;-70
2023/08/10 12:03:04;;;;;;;4.03;1.60;;;25.30;1.00;;;;;;5071373;28;20375;-69
2023/08/10 12:05:38;;;;;;;6.78;1.98;;;25.00;99.90;;;;;;5070995;28;20429;-69
2023/08/10 12:08:06;;;;;;;6.40;1.80;;;24.50;1.00;;;;;;5070973;28;20056;-69
2023/08/10 12:10:36;;;;;;;3.40;1.45;;;23.90;99.90;;;;;;5071042;28;20078;-69
2023/08/10 12:13:03;;;;;;;4.30;1.88;;;24.30;1.00;;;;;;5070894;28;20017;-68
2023/08/10 12:15:30;;;;;;;5.93;1.85;;;23.80;99.90;;;;;;5070649;28;20437;-69
2023/08/10 12:17:55;;;;;;;6.53;2.05;;;23.40;99.90;;;;;;5071056;28;20020;-69
2023/08/10 12:20:21;;;;;;;6.25;2.17;;;23.50;1.00;;;;;;5071164;28;20104;-71
2023/08/10 12:22:46;;;;;;;6.55;1.88;;;23.90;99.90;;;;;;5070899;28;20082;-69
2023/08/10 12:25:12;;;;;;;4.70;1.90;;;24.50;99.90;;;;;;5070731;28;20079;-69
2023/08/10 12:27:38;;;;;;;4.50;2.00;;;24.00;4.70;;;;;;5071102;28;20115;-69
2023/08/10 12:30:04;;;;;;;4.15;1.60;;;24.30;1.00;;;;;;5070507;28;20482;-70
2023/08/10 12:32:29;;;;;;;5.28;1.90;;;24.40;58.40;;;;;;5070463;28;20029;-69
2023/08/10 12:34:55;;;;;;;4.07;1.60;;;24.30;99.90;;;;;;5070101;28;20498;-69
2023/08/10 12:37:20;;;;;;;3.55;1.77;;;24.40;3.80;;;;;;5070409;28;20102;-69
2023/08/10 12:39:46;;;;;;;3.85;2.08;;;24.40;99.90;;;;;;5070566;28;20025;-69
2023/08/10 12:42:11;;;;;;;3.45;1.63;;;24.40;1.00;;;;;;5070501;28;20028;-69
2023/08/10 12:44:37;;;;;;;4.05;1.80;;;24.80;1.00;;;;;;5070608;28;20466;-69
2023/08/10 12:47:03;;;;;;;4.35;1.67;;;24.60;99.90;;;;;;5070327;28;20025;-68
2023/08/10 12:49:28;;;;;;;5.32;1.90;;;24.50;99.90;;;;;;5070436;28;20032;-68
2023/08/10 12:51:54;;;;;;;3.10;1.48;;;24.30;99.90;;;;;;5070607;28;20470;-69
2023/08/10 12:54:20;;;;;;;5.47;1.90;;;24.50;99.90;;;;;;5070625;28;20116;-69